sensor_id;sensor_type;location;lat;lon;timestamp;pressure;altitude;pressure_sealevel;temperature
13497;BMP180;6820;49.374;8.452;2022-10-16T00:00:13;100292.78;;;23.75
13497;BMP180;6820;49.374;8.452;2022-10-16T00:04:14;100295.41;;;23.76
13497;BMP180;6820;49.374;8.452;2022-10-16T00:08:16;100296.28;;;23.75
13497;BMP180;6820;49.374;8.452;2022-10-16T00:12:17;100291.97;;;23.76
13497;BMP180;6820;49.374;8.452;2022-10-16T00:16:19;100300.56;;;23.73
13497;BMP180;6820;49.374;8.452;2022-10-16T00:20:21;100282.41;;;23.69
13497;BMP180;6820;49.374;8.452;2022-10-16T00:24:23;100280.69;;;23.69
13497;BMP180;6820;49.374;8.452;2022-10-16T00:28:25;100279.81;;;23.69
13497;BMP180;6820;49.374;8.452;2022-10-16T00:32:27;100294.47;;;23.67
13497;BMP180;6820;49.374;8.452;2022-10-16T00:36:29;100302.22;;;23.67
13497;BMP180;6820;49.374;8.452;2022-10-16T00:40:31;100309.13;;;23.66
13497;BMP180;6820;49.374;8.452;2022-10-16T00:44:59;100326.44;;;23.70
13497;BMP180;6820;49.374;8.452;2022-10-16T00:49:05;100321.28;;;23.73
13497;BMP180;6820;49.374;8.452;2022-10-16T00:53:07;100311.81;;;23.75
13497;BMP180;6820;49.374;8.452;2022-10-16T00:57:08;100313.50;;;23.73
13497;BMP180;6820;49.374;8.452;2022-10-16T01:01:10;100312.63;;;23.70
13497;BMP180;6820;49.374;8.452;2022-10-16T01:05:12;100323.81;;;23.67
13497;BMP180;6820;49.374;8.452;2022-10-16T01:09:36;100313.44;;;23.66
13497;BMP180;6820;49.374;8.452;2022-10-16T01:13:42;100309.94;;;23.61
13497;BMP180;6820;49.374;8.452;2022-10-16T01:17:51;100329.84;;;23.68
13497;BMP180;6820;49.374;8.452;2022-10-16T01:21:56;100322.13;;;23.74
13497;BMP180;6820;49.374;8.452;2022-10-16T01:26:40;100324.75;;;23.78
13497;BMP180;6820;49.374;8.452;2022-10-16T01:30:46;100319.53;;;23.74
13497;BMP180;6820;49.374;8.452;2022-10-16T01:34:55;100323.84;;;23.73
13497;BMP180;6820;49.374;8.452;2022-10-16T01:39:01;100317.78;;;23.71
13497;BMP180;6820;49.374;8.452;2022-10-16T01:43:11;100332.41;;;23.62
13497;BMP180;6820;49.374;8.452;2022-10-16T01:47:14;100347.94;;;23.62
13497;BMP180;6820;49.374;8.452;2022-10-16T01:51:17;100348.84;;;23.71
13497;BMP180;6820;49.374;8.452;2022-10-16T01:55:27;100337.69;;;23.80
13497;BMP180;6820;49.374;8.452;2022-10-16T01:59:33;100333.41;;;23.82
13497;BMP180;6820;49.374;8.452;2022-10-16T02:03:38;100335.13;;;23.80
13497;BMP180;6820;49.374;8.452;2022-10-16T02:07:41;100339.38;;;23.75
13497;BMP180;6820;49.374;8.452;2022-10-16T02:11:44;100337.66;;;23.74
13497;BMP180;6820;49.374;8.452;2022-10-16T02:15:46;100351.50;;;23.76
13497;BMP180;6820;49.374;8.452;2022-10-16T02:19:49;100349.75;;;23.76
13497;BMP180;6820;49.374;8.452;2022-10-16T02:24:08;100345.41;;;23.71
13497;BMP180;6820;49.374;8.452;2022-10-16T02:28:17;100341.91;;;23.66
13497;BMP180;6820;49.374;8.452;2022-10-16T02:32:21;100334.13;;;23.63
13497;BMP180;6820;49.374;8.452;2022-10-16T02:36:27;100342.69;;;23.57
13497;BMP180;6820;49.374;8.452;2022-10-16T02:40:28;100341.72;;;23.50
13497;BMP180;6820;49.374;8.452;2022-10-16T02:44:30;100341.78;;;23.51
13497;BMP180;6820;49.374;8.452;2022-10-16T02:48:32;100339.94;;;23.41
13497;BMP180;6820;49.374;8.452;2022-10-16T02:52:33;100345.09;;;23.41
13497;BMP180;6820;49.374;8.452;2022-10-16T02:56:35;100349.41;;;23.41
13497;BMP180;6820;49.374;8.452;2022-10-16T03:00:37;100354.59;;;23.42
13497;BMP180;6820;49.374;8.452;2022-10-16T03:04:38;100364.13;;;23.46
13497;BMP180;6820;49.374;8.452;2022-10-16T03:08:40;100357.22;;;23.47
13497;BMP180;6820;49.374;8.452;2022-10-16T03:12:41;100359.75;;;23.39
13497;BMP180;6820;49.374;8.452;2022-10-16T03:16:43;100369.16;;;23.33
13497;BMP180;6820;49.374;8.452;2022-10-16T03:20:45;100350.19;;;23.32
13497;BMP180;6820;49.374;8.452;2022-10-16T03:24:46;100348.44;;;23.27
13497;BMP180;6820;49.374;8.452;2022-10-16T03:28:48;100349.22;;;23.23
13497;BMP180;6820;49.374;8.452;2022-10-16T03:32:49;100338.03;;;23.24
13497;BMP180;6820;49.374;8.452;2022-10-16T03:36:55;100341.50;;;23.24
13497;BMP180;6820;49.374;8.452;2022-10-16T03:40:56;100336.34;;;23.29
13497;BMP180;6820;49.374;8.452;2022-10-16T03:44:58;100345.88;;;23.30
13497;BMP180;6820;49.374;8.452;2022-10-16T03:49:00;100350.22;;;23.35
13497;BMP180;6820;49.374;8.452;2022-10-16T03:53:05;100355.41;;;23.35
13497;BMP180;6820;49.374;8.452;2022-10-16T03:57:07;100363.09;;;23.31
13497;BMP180;6820;49.374;8.452;2022-10-16T04:01:08;100357.03;;;23.29
13497;BMP180;6820;49.374;8.452;2022-10-16T04:05:10;100368.31;;;23.32
13497;BMP180;6820;49.374;8.452;2022-10-16T04:09:11;100370.09;;;23.39
13497;BMP180;6820;49.374;8.452;2022-10-16T04:13:13;100371.84;;;23.42
13497;BMP180;6820;49.374;8.452;2022-10-16T04:17:15;100370.13;;;23.42
13497;BMP180;6820;49.374;8.452;2022-10-16T04:21:16;100381.28;;;23.38
13497;BMP180;6820;49.374;8.452;2022-10-16T04:25:18;100390.81;;;23.41
13497;BMP180;6820;49.374;8.452;2022-10-16T04:29:19;100397.72;;;23.43
13497;BMP180;6820;49.374;8.452;2022-10-16T04:33:21;100408.94;;;23.45
13497;BMP180;6820;49.374;8.452;2022-10-16T04:37:24;100398.59;;;23.45
13497;BMP180;6820;49.374;8.452;2022-10-16T04:41:27;100383.03;;;23.42
13497;BMP180;6820;49.374;8.452;2022-10-16T04:45:28;100382.97;;;23.35
13497;BMP180;6820;49.374;8.452;2022-10-16T04:49:30;100391.53;;;23.28
13497;BMP180;6820;49.374;8.452;2022-10-16T04:53:32;100394.88;;;23.21
13497;BMP180;6820;49.374;8.452;2022-10-16T04:57:34;100395.66;;;23.13
13497;BMP180;6820;49.374;8.452;2022-10-16T05:01:36;100381.81;;;23.06
13497;BMP180;6820;49.374;8.452;2022-10-16T05:05:42;100391.31;;;23.09
13497;BMP180;6820;49.374;8.452;2022-10-16T05:09:44;100400.88;;;23.17
13497;BMP180;6820;49.374;8.452;2022-10-16T05:13:45;100387.13;;;23.20
13497;BMP180;6820;49.374;8.452;2022-10-16T05:17:55;100385.28;;;23.10
13497;BMP180;6820;49.374;8.452;2022-10-16T05:21:57;100381.81;;;23.06
13497;BMP180;6820;49.374;8.452;2022-10-16T05:25:59;100370.53;;;23.03
13497;BMP180;6820;49.374;8.452;2022-10-16T05:30:00;100384.31;;;23.02
13497;BMP180;6820;49.374;8.452;2022-10-16T05:34:02;100382.63;;;23.04
13497;BMP180;6820;49.374;8.452;2022-10-16T05:38:04;100382.66;;;23.07
13497;BMP180;6820;49.374;8.452;2022-10-16T05:42:05;100393.91;;;23.09
13497;BMP180;6820;49.374;8.452;2022-10-16T05:46:07;100399.88;;;23.05
13497;BMP180;6820;49.374;8.452;2022-10-16T05:50:09;100418.91;;;23.10
13497;BMP180;6820;49.374;8.452;2022-10-16T05:54:10;100412.09;;;23.18
13497;BMP180;6820;49.374;8.452;2022-10-16T05:58:12;100407.78;;;23.18
13497;BMP180;6820;49.374;8.452;2022-10-16T06:02:14;100404.31;;;23.15
13497;BMP180;6820;49.374;8.452;2022-10-16T06:06:21;100404.25;;;23.10
13497;BMP180;6820;49.374;8.452;2022-10-16T06:10:23;100401.63;;;23.07
13497;BMP180;6820;49.374;8.452;2022-10-16T06:14:24;100399.03;;;23.06
13497;BMP180;6820;49.374;8.452;2022-10-16T06:18:27;100415.44;;;23.11
13497;BMP180;6820;49.374;8.452;2022-10-16T06:22:29;100406.06;;;23.19
13497;BMP180;6820;49.374;8.452;2022-10-16T06:26:31;100413.06;;;23.28
13497;BMP180;6820;49.374;8.452;2022-10-16T06:30:33;100413.16;;;23.37
13497;BMP180;6820;49.374;8.452;2022-10-16T06:34:34;100429.56;;;23.39
13497;BMP180;6820;49.374;8.452;2022-10-16T06:38:37;100443.41;;;23.41
13497;BMP180;6820;49.374;8.452;2022-10-16T06:42:40;100455.50;;;23.45
13497;BMP180;6820;49.374;8.452;2022-10-16T06:46:42;100456.44;;;23.49
13497;BMP180;6820;49.374;8.452;2022-10-16T06:50:43;100445.19;;;23.47
13497;BMP180;6820;49.374;8.452;2022-10-16T06:54:45;100462.56;;;23.55
13497;BMP180;6820;49.374;8.452;2022-10-16T06:58:47;100472.09;;;23.60
13497;BMP180;6820;49.374;8.452;2022-10-16T07:02:49;100482.50;;;23.66
13497;BMP180;6820;49.374;8.452;2022-10-16T07:06:51;100487.75;;;23.71
13497;BMP180;6820;49.374;8.452;2022-10-16T07:11:08;100501.59;;;23.77
13497;BMP180;6820;49.374;8.452;2022-10-16T07:15:10;100504.28;;;23.86
13497;BMP180;6820;49.374;8.452;2022-10-16T07:19:11;100508.69;;;23.96
13497;BMP180;6820;49.374;8.452;2022-10-16T07:23:15;100508.00;;;24.10
13497;BMP180;6820;49.374;8.452;2022-10-16T07:27:17;100508.09;;;24.19
13497;BMP180;6820;49.374;8.452;2022-10-16T07:31:20;100522.88;;;24.32
13497;BMP180;6820;49.374;8.452;2022-10-16T07:35:21;100523.78;;;24.34
13497;BMP180;6820;49.374;8.452;2022-10-16T07:39:23;100521.16;;;24.32
13497;BMP180;6820;49.374;8.452;2022-10-16T07:43:25;100535.88;;;24.35
13497;BMP180;6820;49.374;8.452;2022-10-16T07:47:27;100540.28;;;24.46
13497;BMP180;6820;49.374;8.452;2022-10-16T07:51:30;100542.94;;;24.56
13497;BMP180;6820;49.374;8.452;2022-10-16T07:55:32;100548.16;;;24.62
13497;BMP180;6820;49.374;8.452;2022-10-16T07:59:33;100537.84;;;24.67
13497;BMP180;6820;49.374;8.452;2022-10-16T08:03:35;100542.16;;;24.66
13497;BMP180;6820;49.374;8.452;2022-10-16T08:07:37;100544.69;;;24.59
13497;BMP180;6820;49.374;8.452;2022-10-16T08:11:39;100548.94;;;24.49
13497;BMP180;6820;49.374;8.452;2022-10-16T08:15:44;100554.97;;;24.46
13497;BMP180;6820;49.374;8.452;2022-10-16T08:19:46;100563.63;;;24.47
13497;BMP180;6820;49.374;8.452;2022-10-16T08:23:50;100551.50;;;24.46
13497;BMP180;6820;49.374;8.452;2022-10-16T08:27:57;100557.56;;;24.48
13497;BMP180;6820;49.374;8.452;2022-10-16T08:31:59;100576.78;;;24.71
13497;BMP180;6820;49.374;8.452;2022-10-16T08:36:01;100574.34;;;24.90
13497;BMP180;6820;49.374;8.452;2022-10-16T08:40:04;100565.84;;;25.13
13497;BMP180;6820;49.374;8.452;2022-10-16T08:48:46;100584.88;;;25.18
13497;BMP180;6820;49.374;8.452;2022-10-16T08:52:48;100597.94;;;25.27
13497;BMP180;6820;49.374;8.452;2022-10-16T08:56:50;100623.06;;;25.40
13497;BMP180;6820;49.374;8.452;2022-10-16T09:00:57;100658.69;;;25.59
13497;BMP180;6820;49.374;8.452;2022-10-16T09:13:43;100633.72;;;25.87
13497;BMP180;6820;49.374;8.452;2022-10-16T09:21:52;100642.59;;;26.33
13497;BMP180;6820;49.374;8.452;2022-10-16T09:25:55;100648.66;;;26.49
13497;BMP180;6820;49.374;8.452;2022-10-16T09:29:58;100653.00;;;26.45
13497;BMP180;6820;49.374;8.452;2022-10-16T09:34:02;100654.72;;;26.42
13497;BMP180;6820;49.374;8.452;2022-10-16T09:38:08;100656.47;;;26.47
13497;BMP180;6820;49.374;8.452;2022-10-16T09:42:14;100636.56;;;26.52
13497;BMP180;6820;49.374;8.452;2022-10-16T09:50:28;100639.13;;;26.60
13497;BMP180;6820;49.374;8.452;2022-10-16T09:58:32;100657.31;;;26.40
13497;BMP180;6820;49.374;8.452;2022-10-16T10:02:36;100656.44;;;26.38
13497;BMP180;6820;49.374;8.452;2022-10-16T10:06:49;100662.47;;;26.30
13497;BMP180;6820;49.374;8.452;2022-10-16T10:10:51;100660.72;;;26.13
13497;BMP180;6820;49.374;8.452;2022-10-16T10:14:58;100666.69;;;25.97
13497;BMP180;6820;49.374;8.452;2022-10-16T10:19:00;100662.25;;;25.80
13497;BMP180;6820;49.374;8.452;2022-10-16T10:23:21;100650.97;;;25.73
13497;BMP180;6820;49.374;8.452;2022-10-16T10:36:12;100653.81;;;26.38
13497;BMP180;6820;49.374;8.452;2022-10-16T10:40:44;100646.97;;;26.76
13497;BMP180;6820;49.374;8.452;2022-10-16T10:45:07;100645.25;;;26.94
13497;BMP180;6820;49.374;8.452;2022-10-16T10:49:51;100648.72;;;26.74
13497;BMP180;6820;49.374;8.452;2022-10-16T11:02:53;100630.44;;;26.41
13497;BMP180;6820;49.374;8.452;2022-10-16T11:07:15;100646.94;;;26.48
13497;BMP180;6820;49.374;8.452;2022-10-16T11:11:49;100651.25;;;26.52
13497;BMP180;6820;49.374;8.452;2022-10-16T11:16:01;100656.47;;;26.50
13497;BMP180;6820;49.374;8.452;2022-10-16T11:28:45;100640.00;;;26.48
13497;BMP180;6820;49.374;8.452;2022-10-16T11:33:03;100644.34;;;26.58
13497;BMP180;6820;49.374;8.452;2022-10-16T11:37:12;100635.69;;;26.69
13497;BMP180;6820;49.374;8.452;2022-10-16T11:41:34;100625.31;;;26.74
13497;BMP180;6820;49.374;8.452;2022-10-16T11:49:43;100629.59;;;27.21
13497;BMP180;6820;49.374;8.452;2022-10-16T11:54:32;100631.31;;;27.57
13497;BMP180;6820;49.374;8.452;2022-10-16T11:58:33;100634.66;;;27.83
13497;BMP180;6820;49.374;8.452;2022-10-16T12:07:05;100628.53;;;28.03
13497;BMP180;6820;49.374;8.452;2022-10-16T12:11:23;100622.44;;;28.04
13497;BMP180;6820;49.374;8.452;2022-10-16T12:15:33;100625.88;;;28.09
13497;BMP180;6820;49.374;8.452;2022-10-16T12:20:28;100616.25;;;28.19
13497;BMP180;6820;49.374;8.452;2022-10-16T12:24:37;100620.56;;;28.28
13497;BMP180;6820;49.374;8.452;2022-10-16T12:28:39;100610.94;;;28.36
13497;BMP180;6820;49.374;8.452;2022-10-16T12:32:42;100610.13;;;28.34
13497;BMP180;6820;49.374;8.452;2022-10-16T12:36:49;100609.28;;;28.29
13497;BMP180;6820;49.374;8.452;2022-10-16T12:40:58;100611.91;;;28.20
13497;BMP180;6820;49.374;8.452;2022-10-16T12:45:00;100610.16;;;28.22
13497;BMP180;6820;49.374;8.452;2022-10-16T12:53:24;100603.97;;;28.42
13497;BMP180;6820;49.374;8.452;2022-10-16T12:57:39;100609.94;;;28.57
13497;BMP180;6820;49.374;8.452;2022-10-16T13:10:26;100620.56;;;28.26
13497;BMP180;6820;49.374;8.452;2022-10-16T13:23:17;100627.78;;;27.70
13497;BMP180;6820;49.374;8.452;2022-10-16T13:31:51;100628.66;;;27.61
13497;BMP180;6820;49.374;8.452;2022-10-16T13:35:56;100635.63;;;27.51
13497;BMP180;6820;49.374;8.452;2022-10-16T13:40:18;100632.19;;;27.44
13497;BMP180;6820;49.374;8.452;2022-10-16T13:44:21;100611.38;;;27.49
13497;BMP180;6820;49.374;8.452;2022-10-16T13:48:22;100628.72;;;27.48
13497;BMP180;6820;49.374;8.452;2022-10-16T13:52:24;100634.78;;;27.59
13497;BMP180;6820;49.374;8.452;2022-10-16T13:56:32;100626.94;;;27.62
13497;BMP180;6820;49.374;8.452;2022-10-16T14:00:34;100634.78;;;27.55
13497;BMP180;6820;49.374;8.452;2022-10-16T14:04:38;100621.78;;;27.44
13497;BMP180;6820;49.374;8.452;2022-10-16T14:08:43;100642.63;;;27.37
13497;BMP180;6820;49.374;8.452;2022-10-16T14:12:45;100639.13;;;27.32
13497;BMP180;6820;49.374;8.452;2022-10-16T14:16:47;100646.97;;;27.22
13497;BMP180;6820;49.374;8.452;2022-10-16T14:20:49;100641.78;;;27.07
13497;BMP180;6820;49.374;8.452;2022-10-16T14:24:51;100645.25;;;26.98
13497;BMP180;6820;49.374;8.452;2022-10-16T14:29:14;100641.78;;;26.92
13497;BMP180;6820;49.374;8.452;2022-10-16T14:37:31;100647.84;;;26.81
13497;BMP180;6820;49.374;8.452;2022-10-16T14:41:41;100656.53;;;26.86
13497;BMP180;6820;49.374;8.452;2022-10-16T14:45:51;100652.19;;;26.91
13497;BMP180;6820;49.374;8.452;2022-10-16T14:49:53;100643.50;;;26.99
13497;BMP180;6820;49.374;8.452;2022-10-16T14:54:00;100646.13;;;27.14
13497;BMP180;6820;49.374;8.452;2022-10-16T14:58:03;100639.16;;;27.27
13497;BMP180;6820;49.374;8.452;2022-10-16T15:02:27;100639.16;;;27.41
13497;BMP180;6820;49.374;8.452;2022-10-16T15:06:29;100643.47;;;27.52
13497;BMP180;6820;49.374;8.452;2022-10-16T15:10:37;100643.44;;;27.59
13497;BMP180;6820;49.374;8.452;2022-10-16T15:14:39;100650.41;;;27.55
13497;BMP180;6820;49.374;8.452;2022-10-16T15:18:41;100653.91;;;27.40
13497;BMP180;6820;49.374;8.452;2022-10-16T15:22:43;100665.19;;;27.27
13497;BMP180;6820;49.374;8.452;2022-10-16T15:26:44;100666.94;;;27.17
13497;BMP180;6820;49.374;8.452;2022-10-16T15:30:50;100661.72;;;27.09
13497;BMP180;6820;49.374;8.452;2022-10-16T15:34:51;100662.56;;;27.05
13497;BMP180;6820;49.374;8.452;2022-10-16T15:38:53;100660.88;;;27.03
13497;BMP180;6820;49.374;8.452;2022-10-16T15:42:55;100651.34;;;27.03
13497;BMP180;6820;49.374;8.452;2022-10-16T15:46:56;100648.72;;;27.05
13497;BMP180;6820;49.374;8.452;2022-10-16T15:50:59;100654.78;;;27.05
13497;BMP180;6820;49.374;8.452;2022-10-16T15:55:00;100652.19;;;26.98
13497;BMP180;6820;49.374;8.452;2022-10-16T15:59:02;100663.47;;;26.91
13497;BMP180;6820;49.374;8.452;2022-10-16T16:03:05;100671.28;;;26.76
13497;BMP180;6820;49.374;8.452;2022-10-16T16:07:07;100673.78;;;26.60
13497;BMP180;6820;49.374;8.452;2022-10-16T16:11:11;100678.09;;;26.46
13497;BMP180;6820;49.374;8.452;2022-10-16T16:15:13;100679.84;;;26.37
13497;BMP180;6820;49.374;8.452;2022-10-16T16:19:14;100680.66;;;26.27
13497;BMP180;6820;49.374;8.452;2022-10-16T16:23:17;100679.75;;;26.16
13497;BMP180;6820;49.374;8.452;2022-10-16T16:27:20;100683.13;;;26.03
13497;BMP180;6820;49.374;8.452;2022-10-16T16:31:27;100689.19;;;25.94
13497;BMP180;6820;49.374;8.452;2022-10-16T16:35:29;100683.06;;;25.84
13497;BMP180;6820;49.374;8.452;2022-10-16T16:39:30;100674.38;;;25.75
13497;BMP180;6820;49.374;8.452;2022-10-16T16:43:32;100674.34;;;25.70
13497;BMP180;6820;49.374;8.452;2022-10-16T16:47:34;100676.91;;;25.66
13497;BMP180;6820;49.374;8.452;2022-10-16T16:51:36;100688.97;;;25.57
13497;BMP180;6820;49.374;8.452;2022-10-16T16:55:41;100692.34;;;25.47
13497;BMP180;6820;49.374;8.452;2022-10-16T16:59:42;100702.66;;;25.38
13497;BMP180;6820;49.374;8.452;2022-10-16T17:03:44;100709.50;;;25.27
13497;BMP180;6820;49.374;8.452;2022-10-16T17:07:46;100704.25;;;25.20
13497;BMP180;6820;49.374;8.452;2022-10-16T17:11:47;100704.19;;;25.12
13497;BMP180;6820;49.374;8.452;2022-10-16T17:15:50;100715.44;;;25.11
13497;BMP180;6820;49.374;8.452;2022-10-16T17:19:52;100711.94;;;25.09
13497;BMP180;6820;49.374;8.452;2022-10-16T17:23:54;100715.38;;;25.07
13497;BMP180;6820;49.374;8.452;2022-10-16T17:27:55;100719.66;;;25.02
13497;BMP180;6820;49.374;8.452;2022-10-16T17:31:57;100721.34;;;24.97
13497;BMP180;6820;49.374;8.452;2022-10-16T17:35:59;100723.91;;;24.93
13497;BMP180;6820;49.374;8.452;2022-10-16T17:40:01;100734.22;;;24.88
13497;BMP180;6820;49.374;8.452;2022-10-16T17:44:05;100734.16;;;24.82
13497;BMP180;6820;49.374;8.452;2022-10-16T17:48:07;100739.28;;;24.78
13497;BMP180;6820;49.374;8.452;2022-10-16T17:52:09;100734.94;;;24.74
13497;BMP180;6820;49.374;8.452;2022-10-16T17:56:12;100735.72;;;24.70
13497;BMP180;6820;49.374;8.452;2022-10-16T18:00:14;100745.22;;;24.67
13497;BMP180;6820;49.374;8.452;2022-10-16T18:04:16;100745.16;;;24.62
13497;BMP180;6820;49.374;8.452;2022-10-16T18:08:18;100745.13;;;24.59
13497;BMP180;6820;49.374;8.452;2022-10-16T18:12:24;100748.56;;;24.55
13497;BMP180;6820;49.374;8.452;2022-10-16T18:16:28;100745.94;;;24.52
13497;BMP180;6820;49.374;8.452;2022-10-16T18:20:30;100753.66;;;24.49
13497;BMP180;6820;49.374;8.452;2022-10-16T18:24:31;100758.78;;;24.46
13497;BMP180;6820;49.374;8.452;2022-10-16T18:28:33;100755.31;;;24.43
13497;BMP180;6820;49.374;8.452;2022-10-16T18:32:35;100765.59;;;24.39
13497;BMP180;6820;49.374;8.452;2022-10-16T18:36:36;100761.22;;;24.33
13497;BMP180;6820;49.374;8.452;2022-10-16T18:40:39;100760.38;;;24.31
13497;BMP180;6820;49.374;8.452;2022-10-16T18:44:41;100762.03;;;24.28
13497;BMP180;6820;49.374;8.452;2022-10-16T18:48:43;100762.00;;;24.25
13497;BMP180;6820;49.374;8.452;2022-10-16T18:52:48;100763.69;;;24.21
13497;BMP180;6820;49.374;8.452;2022-10-16T18:56:51;100761.91;;;24.19
13497;BMP180;6820;49.374;8.452;2022-10-16T19:00:53;100763.56;;;24.15
13497;BMP180;6820;49.374;8.452;2022-10-16T19:04:55;100764.38;;;24.12
13497;BMP180;6820;49.374;8.452;2022-10-16T19:08:56;100772.09;;;24.07
13497;BMP180;6820;49.374;8.452;2022-10-16T19:12:58;100773.78;;;24.05
13497;BMP180;6820;49.374;8.452;2022-10-16T19:16:59;100768.56;;;24.02
13497;BMP180;6820;49.374;8.452;2022-10-16T19:21:02;100777.13;;;23.98
13497;BMP180;6820;49.374;8.452;2022-10-16T19:25:05;100780.59;;;23.97
13497;BMP180;6820;49.374;8.452;2022-10-16T19:29:07;100788.31;;;23.96
13497;BMP180;6820;49.374;8.452;2022-10-16T19:33:09;100786.50;;;23.90
13497;BMP180;6820;49.374;8.452;2022-10-16T19:37:11;100790.81;;;23.88
13497;BMP180;6820;49.374;8.452;2022-10-16T19:41:14;100791.59;;;23.83
13497;BMP180;6820;49.374;8.452;2022-10-16T19:45:16;100804.44;;;23.76
13497;BMP180;6820;49.374;8.452;2022-10-16T19:49:18;100803.47;;;23.71
13497;BMP180;6820;49.374;8.452;2022-10-16T19:53:22;100812.91;;;23.66
13497;BMP180;6820;49.374;8.452;2022-10-16T19:57:24;100826.69;;;23.65
13497;BMP180;6820;49.374;8.452;2022-10-16T20:01:28;100827.53;;;23.64
13497;BMP180;6820;49.374;8.452;2022-10-16T20:05:30;100830.09;;;23.62
13497;BMP180;6820;49.374;8.452;2022-10-16T20:09:32;100833.50;;;23.61
13497;BMP180;6820;49.374;8.452;2022-10-16T20:13:35;100839.50;;;23.57
13497;BMP180;6820;49.374;8.452;2022-10-16T20:17:42;100842.03;;;23.54
13497;BMP180;6820;49.374;8.452;2022-10-16T20:21:44;100841.13;;;23.53
13497;BMP180;6820;49.374;8.452;2022-10-16T20:25:46;100842.81;;;23.51
13497;BMP180;6820;49.374;8.452;2022-10-16T20:29:47;100844.47;;;23.47
13497;BMP180;6820;49.374;8.452;2022-10-16T20:33:51;100854.81;;;23.46
13497;BMP180;6820;49.374;8.452;2022-10-16T20:37:53;100861.53;;;23.36
13497;BMP180;6820;49.374;8.452;2022-10-16T20:41:54;100869.25;;;23.35
13497;BMP180;6820;49.374;8.452;2022-10-16T20:46:00;100872.72;;;23.35
13497;BMP180;6820;49.374;8.452;2022-10-16T20:50:03;100877.00;;;23.35
13497;BMP180;6820;49.374;8.452;2022-10-16T20:54:05;100878.72;;;23.34
13497;BMP180;6820;49.374;8.452;2022-10-16T20:58:07;100884.75;;;23.33
13497;BMP180;6820;49.374;8.452;2022-10-16T21:02:09;100874.34;;;23.30
13497;BMP180;6820;49.374;8.452;2022-10-16T21:06:14;100882.94;;;23.29
13497;BMP180;6820;49.374;8.452;2022-10-16T21:10:16;100880.28;;;23.26
13497;BMP180;6820;49.374;8.452;2022-10-16T21:14:19;100878.56;;;23.25
13497;BMP180;6820;49.374;8.452;2022-10-16T21:18:22;100894.91;;;23.23
13497;BMP180;6820;49.374;8.452;2022-10-16T21:22:27;100896.56;;;23.20
13497;BMP180;6820;49.374;8.452;2022-10-16T21:26:30;100893.88;;;23.15
13497;BMP180;6820;49.374;8.452;2022-10-16T21:30:32;100899.88;;;23.13
13497;BMP180;6820;49.374;8.452;2022-10-16T21:34:33;100893.78;;;23.11
13497;BMP180;6820;49.374;8.452;2022-10-16T21:38:35;100913.59;;;23.09
13497;BMP180;6820;49.374;8.452;2022-10-16T21:42:37;100900.53;;;23.03
13497;BMP180;6820;49.374;8.452;2022-10-16T21:46:40;100897.81;;;22.95
13497;BMP180;6820;49.374;8.452;2022-10-16T21:50:47;100902.03;;;22.92
13497;BMP180;6820;49.374;8.452;2022-10-16T21:54:48;100909.78;;;22.91
13497;BMP180;6820;49.374;8.452;2022-10-16T21:58:50;100909.72;;;22.88
13497;BMP180;6820;49.374;8.452;2022-10-16T22:02:52;100918.22;;;22.84
13497;BMP180;6820;49.374;8.452;2022-10-16T22:06:53;100912.97;;;22.79
13497;BMP180;6820;49.374;8.452;2022-10-16T22:11:02;100916.34;;;22.77
13497;BMP180;6820;49.374;8.452;2022-10-16T22:15:04;100917.09;;;22.73
13497;BMP180;6820;49.374;8.452;2022-10-16T22:19:06;100920.53;;;22.72
13497;BMP180;6820;49.374;8.452;2022-10-16T22:23:08;100918.75;;;22.69
13497;BMP180;6820;49.374;8.452;2022-10-16T22:27:09;100917.00;;;22.67
13497;BMP180;6820;49.374;8.452;2022-10-16T22:31:12;100923.00;;;22.66
13497;BMP180;6820;49.374;8.452;2022-10-16T22:35:14;100931.56;;;22.63
13497;BMP180;6820;49.374;8.452;2022-10-16T22:39:16;100930.59;;;22.59
13497;BMP180;6820;49.374;8.452;2022-10-16T22:43:18;100931.41;;;22.58
13497;BMP180;6820;49.374;8.452;2022-10-16T22:47:19;100935.69;;;22.57
13497;BMP180;6820;49.374;8.452;2022-10-16T22:51:21;100933.09;;;22.56
13497;BMP180;6820;49.374;8.452;2022-10-16T22:55:23;100930.53;;;22.56
13497;BMP180;6820;49.374;8.452;2022-10-16T22:59:25;100932.25;;;22.57
13497;BMP180;6820;49.374;8.452;2022-10-16T23:03:26;100940.88;;;22.57
13497;BMP180;6820;49.374;8.452;2022-10-16T23:07:28;100942.53;;;22.54
13497;BMP180;6820;49.374;8.452;2022-10-16T23:11:29;100939.94;;;22.54
13497;BMP180;6820;49.374;8.452;2022-10-16T23:15:31;100951.16;;;22.54
13497;BMP180;6820;49.374;8.452;2022-10-16T23:19:33;100951.94;;;22.52
13497;BMP180;6820;49.374;8.452;2022-10-16T23:23:35;100952.81;;;22.52
13497;BMP180;6820;49.374;8.452;2022-10-16T23:27:37;100945.91;;;22.51
13497;BMP180;6820;49.374;8.452;2022-10-16T23:31:38;100956.25;;;22.51
13497;BMP180;6820;49.374;8.452;2022-10-16T23:35:40;100958.72;;;22.47
13497;BMP180;6820;49.374;8.452;2022-10-16T23:39:42;100967.38;;;22.49
13497;BMP180;6820;49.374;8.452;2022-10-16T23:43:43;100977.78;;;22.52
13497;BMP180;6820;49.374;8.452;2022-10-16T23:47:45;100974.38;;;22.53
13497;BMP180;6820;49.374;8.452;2022-10-16T23:51:46;100983.88;;;22.54
13497;BMP180;6820;49.374;8.452;2022-10-16T23:55:48;100988.16;;;22.53
13497;BMP180;6820;49.374;8.452;2022-10-16T23:59:50;100979.50;;;22.51
